Dies, Texas
Current Conditions -  °F | °C
As of 10:55 PM on Friday 19 Dec 2014 (Local Time) from KJAS Reporting Station
Overcast Overcast  
Wind Chill: 45°   Ceiling: 800
Heat Index: 48°   Visibility: 10mi
Dew Point: 47°   Wind: 7mph
Humidity: 95%   Direction: 30°NNE
Pressure: 30.16"   Gusts: NA
Location:  30.7643°N, 94.4448°W
Report Text: KJAS 200455Z AUTO 03006KT 10SM OVC008 09/08 A3016 RMK AO2 T00900082
Loading
Personal Weather Stations






























Interactive Weather Map New forecast layout! Learn more

10-Day Weather Forecast

Advertisements
Track Severe Weather on mobile